createdAt,value
2022-08-25T00:02:11.210Z,21.70
2022-08-25T00:04:40.473Z,21.70
2022-08-25T00:07:11.060Z,21.70
2022-08-25T00:09:39.678Z,21.70
2022-08-25T00:12:08.799Z,21.70
2022-08-25T00:14:39.593Z,21.60
2022-08-25T00:17:08.288Z,21.60
2022-08-25T00:19:39.115Z,21.50
2022-08-25T00:22:08.584Z,21.60
2022-08-25T00:24:37.162Z,21.60
2022-08-25T00:27:06.443Z,21.50
2022-08-25T00:29:38.140Z,21.50
2022-08-25T00:32:08.596Z,21.50
2022-08-25T00:34:39.594Z,21.50
2022-08-25T00:37:10.421Z,21.50
2022-08-25T00:39:40.750Z,21.50
2022-08-25T00:42:11.799Z,21.50
2022-08-25T00:44:45.124Z,21.50
2022-08-25T00:47:15.286Z,21.60
2022-08-25T00:49:47.342Z,21.60
2022-08-25T00:52:19.753Z,21.60
2022-08-25T00:54:53.350Z,21.70
2022-08-25T00:57:34.179Z,21.70
2022-08-25T01:00:12.326Z,21.70
2022-08-25T01:02:42.689Z,21.70
2022-08-25T01:05:11.339Z,21.80
2022-08-25T01:07:40.903Z,21.80
2022-08-25T01:10:13.509Z,21.80
2022-08-25T01:12:42.334Z,21.80
2022-08-25T01:15:13.506Z,21.80
2022-08-25T01:17:50.033Z,21.80
2022-08-25T01:20:20.379Z,21.80
2022-08-25T01:22:55.235Z,21.80
2022-08-25T01:25:33.649Z,21.80
2022-08-25T01:28:02.602Z,21.80
2022-08-25T01:30:31.335Z,21.80
2022-08-25T01:32:59.967Z,21.80
2022-08-25T01:35:28.519Z,21.70
2022-08-25T01:37:58.655Z,21.70
2022-08-25T01:40:27.159Z,21.70
2022-08-25T01:43:03.362Z,21.60
2022-08-25T01:45:31.838Z,21.60
2022-08-25T01:48:00.380Z,21.60
2022-08-25T01:50:29.561Z,21.50
2022-08-25T01:53:03.744Z,21.50
2022-08-25T01:55:51.496Z,21.50
2022-08-25T01:58:20.699Z,21.40
2022-08-25T02:00:50.283Z,21.40
2022-08-25T02:03:19.897Z,21.30
2022-08-25T02:05:50.225Z,21.30
2022-08-25T02:08:23.116Z,21.30
2022-08-25T02:10:51.879Z,21.30
2022-08-25T02:13:20.887Z,21.20
2022-08-25T02:15:58.087Z,21.20
2022-08-25T02:18:26.941Z,21.20
2022-08-25T02:20:55.532Z,21.30
2022-08-25T02:23:25.509Z,21.20
2022-08-25T02:25:54.257Z,21.20
2022-08-25T02:28:22.864Z,21.20
2022-08-25T02:30:53.003Z,21.20
2022-08-25T02:33:27.531Z,21.20
2022-08-25T02:35:59.443Z,21.20
2022-08-25T02:38:30.687Z,21.20
2022-08-25T02:41:00.968Z,21.20
2022-08-25T02:43:30.463Z,21.20
2022-08-25T02:45:59.493Z,21.20
2022-08-25T02:48:28.605Z,21.20
2022-08-25T02:51:01.991Z,21.20
2022-08-25T02:53:32.482Z,21.20
2022-08-25T02:56:01.712Z,21.20
2022-08-25T02:58:30.507Z,21.20
2022-08-25T03:00:59.014Z,21.20
2022-08-25T03:03:27.581Z,21.20
2022-08-25T03:05:56.360Z,21.20
2022-08-25T03:08:25.980Z,21.20
2022-08-25T03:10:56.025Z,21.20
2022-08-25T03:13:24.528Z,21.20
2022-08-25T03:15:54.352Z,21.10
2022-08-25T03:18:23.815Z,21.10
2022-08-25T03:20:53.176Z,21.10
2022-08-25T03:23:22.012Z,21.00
2022-08-25T03:26:08.408Z,21.00
2022-08-25T03:28:39.017Z,21.00
2022-08-25T03:31:07.867Z,21.00
2022-08-25T03:33:36.990Z,21.00
2022-08-25T03:36:06.500Z,21.00
2022-08-25T03:38:36.172Z,21.00
2022-08-25T03:41:14.863Z,20.90
2022-08-25T03:43:48.261Z,20.90
2022-08-25T03:46:23.501Z,21.00
2022-08-25T03:48:53.535Z,21.00
2022-08-25T03:51:23.596Z,20.90
2022-08-25T03:53:52.822Z,21.00
2022-08-25T03:56:22.021Z,21.00
2022-08-25T03:58:52.063Z,21.00
2022-08-25T04:01:21.349Z,21.00
2022-08-25T04:03:50.304Z,21.00
2022-08-25T04:06:20.471Z,21.00
2022-08-25T04:08:49.326Z,21.10
2022-08-25T04:11:21.396Z,21.10
2022-08-25T04:13:53.095Z,21.10
2022-08-25T04:16:24.327Z,21.10
2022-08-25T04:18:55.037Z,21.10
2022-08-25T04:21:25.262Z,21.10
2022-08-25T04:23:55.175Z,21.10
2022-08-25T04:26:26.098Z,21.10
2022-08-25T04:28:58.532Z,21.10
2022-08-25T04:31:28.750Z,21.10
2022-08-25T04:33:59.384Z,21.10
2022-08-25T04:36:28.153Z,21.20
2022-08-25T04:38:58.028Z,21.20
2022-08-25T04:41:27.662Z,21.20
2022-08-25T04:43:59.313Z,21.20
2022-08-25T04:46:31.814Z,21.30
2022-08-25T04:49:02.741Z,21.30
2022-08-25T04:51:34.510Z,21.40
2022-08-25T04:54:05.517Z,21.40
2022-08-25T04:56:35.110Z,21.40
2022-08-25T04:59:06.864Z,21.40
2022-08-25T05:01:36.405Z,21.50
2022-08-25T05:04:08.072Z,21.50
2022-08-25T05:06:44.078Z,21.50
2022-08-25T05:09:13.693Z,21.60
2022-08-25T05:11:48.621Z,21.60
2022-08-25T05:14:21.711Z,21.60
2022-08-25T05:16:54.918Z,21.70
2022-08-25T05:19:24.426Z,21.70
2022-08-25T05:21:54.006Z,21.70
2022-08-25T05:24:23.234Z,21.80
2022-08-25T05:26:51.999Z,21.80
2022-08-25T05:29:21.954Z,21.80
2022-08-25T05:31:51.129Z,21.90
2022-08-25T05:34:20.877Z,21.90
2022-08-25T05:36:49.641Z,22.00
2022-08-25T05:39:18.619Z,22.10
2022-08-25T05:41:47.359Z,22.10
2022-08-25T05:44:20.805Z,22.20
2022-08-25T05:46:52.573Z,22.20
2022-08-25T05:49:21.182Z,22.20
2022-08-25T05:51:49.703Z,22.20
2022-08-25T05:54:18.635Z,22.20
2022-08-25T05:56:47.110Z,22.20
2022-08-25T05:59:15.882Z,22.30
2022-08-25T06:02:02.025Z,22.40
2022-08-25T06:04:32.569Z,22.40
2022-08-25T06:07:01.305Z,22.50
2022-08-25T06:09:29.883Z,22.60
2022-08-25T06:11:58.510Z,22.60
2022-08-25T06:14:27.560Z,22.70
2022-08-25T06:16:57.019Z,22.70
2022-08-25T06:19:25.812Z,22.70
2022-08-25T06:21:59.967Z,22.60
2022-08-25T06:24:29.813Z,22.60
2022-08-25T06:26:59.191Z,22.70
2022-08-25T06:29:27.872Z,22.80
2022-08-25T06:31:56.616Z,22.90
2022-08-25T06:34:25.555Z,23.20
2022-08-25T06:36:54.415Z,23.40
2022-08-25T06:39:25.074Z,23.50
2022-08-25T06:41:54.625Z,23.50
2022-08-25T06:44:24.314Z,23.50
2022-08-25T06:46:53.112Z,23.50
2022-08-25T06:49:22.586Z,23.50
2022-08-25T06:51:51.346Z,23.50
2022-08-25T06:54:19.906Z,23.60
2022-08-25T06:56:49.988Z,23.70
2022-08-25T06:59:19.181Z,23.90
2022-08-25T07:01:49.797Z,23.90
2022-08-25T07:04:19.169Z,24.10
2022-08-25T07:06:47.712Z,24.20
2022-08-25T07:09:19.135Z,24.40
2022-08-25T07:11:49.312Z,24.70
2022-08-25T07:14:19.060Z,24.80
2022-08-25T07:16:50.354Z,24.90
2022-08-25T07:19:21.043Z,25.00
2022-08-25T07:21:53.769Z,25.00
2022-08-25T07:24:23.706Z,25.00
2022-08-25T07:26:54.063Z,25.10
2022-08-25T07:29:31.827Z,25.20
2022-08-25T07:32:02.456Z,25.30
2022-08-25T07:34:52.135Z,25.40
2022-08-25T07:37:47.463Z,25.70
2022-08-25T07:40:14.701Z,26.00
2022-08-25T07:42:44.748Z,26.30
2022-08-25T07:45:15.610Z,26.50
2022-08-25T07:47:51.546Z,26.60
2022-08-25T07:50:21.510Z,26.80
2022-08-25T07:52:55.156Z,26.90
2022-08-25T07:55:26.027Z,26.90
2022-08-25T07:57:59.760Z,27.00
2022-08-25T08:00:30.239Z,27.10
2022-08-25T08:02:59.656Z,27.10
2022-08-25T08:05:29.500Z,27.10
2022-08-25T08:07:59.168Z,27.10
2022-08-25T08:13:19.107Z,26.90
2022-08-25T08:15:49.601Z,26.90
2022-08-25T08:18:18.484Z,26.90
2022-08-25T08:20:48.235Z,26.90
2022-08-25T08:23:17.340Z,26.90
2022-08-25T08:25:46.045Z,26.80
2022-08-25T08:28:14.530Z,26.80
2022-08-25T08:30:53.772Z,26.70
2022-08-25T08:33:24.986Z,26.70
2022-08-25T08:36:04.900Z,27.00
2022-08-25T08:38:35.057Z,27.10
2022-08-25T08:41:54.280Z,27.20
2022-08-25T08:44:32.357Z,27.20
2022-08-25T08:47:09.122Z,27.10
2022-08-25T08:49:47.782Z,27.00
2022-08-25T08:52:20.285Z,27.00
2022-08-25T08:54:56.867Z,27.00
2022-08-25T08:57:28.235Z,27.10
2022-08-25T09:00:02.015Z,27.40
2022-08-25T09:02:49.732Z,27.70
2022-08-25T09:05:23.269Z,28.00
2022-08-25T09:07:56.759Z,28.50
2022-08-25T09:10:31.996Z,28.90
2022-08-25T09:13:15.487Z,29.20
2022-08-25T09:16:33.747Z,29.30
2022-08-25T09:19:23.555Z,29.10
2022-08-25T09:21:58.890Z,28.90
2022-08-25T09:24:42.069Z,28.70
2022-08-25T09:27:21.161Z,28.50
2022-08-25T09:30:01.858Z,28.40
2022-08-25T09:32:37.998Z,28.40
2022-08-25T09:35:15.519Z,28.50
2022-08-25T09:37:44.209Z,28.50
2022-08-25T09:40:13.169Z,28.60
2022-08-25T09:42:50.150Z,28.50
2022-08-25T09:45:34.547Z,28.50
2022-08-25T09:48:04.076Z,28.50
2022-08-25T09:50:34.875Z,28.50
2022-08-25T09:53:18.718Z,28.50
2022-08-25T09:56:00.038Z,28.50
2022-08-25T09:58:29.367Z,28.60
2022-08-25T10:01:14.427Z,28.70
2022-08-25T10:03:58.949Z,28.90
2022-08-25T10:06:34.488Z,29.00
2022-08-25T10:09:06.632Z,28.80
2022-08-25T10:11:44.943Z,29.00
2022-08-25T10:14:28.904Z,29.20
2022-08-25T10:17:14.953Z,29.40
2022-08-25T10:19:43.992Z,29.50
2022-08-25T10:22:24.372Z,29.60
2022-08-25T10:24:53.249Z,29.70
2022-08-25T10:27:29.155Z,29.90
2022-08-25T10:30:20.971Z,29.90
2022-08-25T10:33:15.969Z,29.90
2022-08-25T10:35:57.961Z,29.70
2022-08-25T10:38:38.115Z,29.60
2022-08-25T10:41:31.946Z,29.50
2022-08-25T10:44:32.088Z,29.50
2022-08-25T10:47:18.947Z,29.60
2022-08-25T10:49:50.251Z,29.60
2022-08-25T10:52:24.859Z,29.70
2022-08-25T10:55:07.171Z,29.80
2022-08-25T10:57:44.932Z,29.90
2022-08-25T11:00:17.246Z,29.90
2022-08-25T11:03:13.224Z,29.90
2022-08-25T11:05:47.970Z,29.90
2022-08-25T11:08:24.036Z,29.90
2022-08-25T11:10:59.037Z,29.90
2022-08-25T11:13:34.993Z,29.80
2022-08-25T11:16:17.534Z,29.70
2022-08-25T11:18:57.605Z,29.60
2022-08-25T11:21:36.799Z,29.50
2022-08-25T11:24:18.254Z,29.40
2022-08-25T11:26:56.156Z,29.40
2022-08-25T11:29:31.037Z,29.40
2022-08-25T11:32:01.381Z,29.30
2022-08-25T11:34:33.511Z,29.30
2022-08-25T11:37:11.323Z,29.30
2022-08-25T11:40:09.925Z,29.40
2022-08-25T11:42:53.823Z,29.40
2022-08-25T11:45:42.408Z,29.40
2022-08-25T11:48:25.990Z,29.50
2022-08-25T11:51:03.013Z,29.60
2022-08-25T11:53:35.593Z,29.60
2022-08-25T11:56:09.521Z,29.60
2022-08-25T11:58:49.991Z,29.60
2022-08-25T12:02:11.033Z,29.60
2022-08-25T12:04:44.450Z,29.60
2022-08-25T12:08:13.320Z,29.60
2022-08-25T12:11:01.248Z,29.60
2022-08-25T12:13:47.558Z,29.60
2022-08-25T12:16:42.149Z,29.50
2022-08-25T12:19:28.789Z,29.50
2022-08-25T12:22:19.571Z,29.50
2022-08-25T12:24:54.672Z,29.40
2022-08-25T12:27:28.835Z,29.40
2022-08-25T12:30:15.955Z,29.40
2022-08-25T12:33:02.934Z,29.40
2022-08-25T12:35:33.519Z,29.40
2022-08-25T12:38:06.367Z,29.40
2022-08-25T12:40:39.776Z,29.40
2022-08-25T12:43:12.695Z,29.40
2022-08-25T12:45:49.211Z,29.30
2022-08-25T12:49:00.428Z,29.30
2022-08-25T12:51:39.328Z,29.30
2022-08-25T12:54:19.083Z,29.30
2022-08-25T12:56:56.334Z,29.30
2022-08-25T12:59:33.446Z,29.30
2022-08-25T13:02:33.188Z,29.20
2022-08-25T13:05:17.510Z,29.20
2022-08-25T13:08:15.172Z,29.10
2022-08-25T13:10:49.809Z,29.10
2022-08-25T13:13:25.542Z,29.10
2022-08-25T13:16:01.289Z,29.10
2022-08-25T13:18:33.791Z,29.30
2022-08-25T13:21:10.183Z,29.30
2022-08-25T13:23:40.661Z,29.30
2022-08-25T13:26:10.658Z,29.40
2022-08-25T13:28:42.069Z,29.40
2022-08-25T13:31:22.588Z,29.40
2022-08-25T13:33:54.911Z,29.40
2022-08-25T13:36:47.109Z,29.30
2022-08-25T13:39:45.673Z,29.30
2022-08-25T13:42:16.551Z,29.30
2022-08-25T13:44:51.716Z,29.30
2022-08-25T13:47:43.355Z,29.30
2022-08-25T13:50:31.118Z,29.20
2022-08-25T13:53:03.492Z,29.20
2022-08-25T13:55:50.464Z,29.20
2022-08-25T13:58:32.506Z,29.20
2022-08-25T14:01:23.226Z,29.10
2022-08-25T14:04:26.145Z,29.10
2022-08-25T14:07:33.577Z,29.10
2022-08-25T14:10:06.373Z,29.10
2022-08-25T14:12:39.579Z,29.10
2022-08-25T14:15:14.814Z,29.10
2022-08-25T14:20:27.251Z,29.10
2022-08-25T14:23:12.886Z,29.10
2022-08-25T14:25:45.325Z,29.10
2022-08-25T14:28:16.889Z,29.10
2022-08-25T14:30:49.395Z,29.10
2022-08-25T14:33:23.607Z,29.10
2022-08-25T14:35:54.413Z,29.00
2022-08-25T14:38:25.920Z,29.00
2022-08-25T14:40:55.087Z,29.00
2022-08-25T14:43:31.938Z,29.00
2022-08-25T14:46:02.824Z,29.00
2022-08-25T14:48:37.101Z,29.00
2022-08-25T14:51:06.978Z,28.90
2022-08-25T14:53:36.797Z,28.90
2022-08-25T14:56:08.463Z,28.90
2022-08-25T14:58:51.260Z,28.90
2022-08-25T15:01:29.310Z,28.90
2022-08-25T15:04:04.839Z,29.00
2022-08-25T15:06:35.958Z,29.00
2022-08-25T15:09:11.245Z,28.90
2022-08-25T15:11:42.360Z,28.90
2022-08-25T15:14:12.990Z,28.90
2022-08-25T15:16:45.222Z,28.90
2022-08-25T15:19:16.599Z,28.90
2022-08-25T15:21:46.794Z,28.90
2022-08-25T15:24:18.090Z,28.90
2022-08-25T15:29:26.372Z,28.90
2022-08-25T15:31:55.068Z,28.90
2022-08-25T15:34:23.658Z,28.80
2022-08-25T15:36:53.339Z,28.80
2022-08-25T15:39:23.098Z,28.70
2022-08-25T15:41:53.022Z,28.70
2022-08-25T15:44:26.142Z,28.60
2022-08-25T15:46:58.181Z,28.60
2022-08-25T15:49:29.810Z,28.60
2022-08-25T15:52:00.333Z,28.60
2022-08-25T15:54:31.331Z,28.50
2022-08-25T15:57:00.126Z,28.50
2022-08-25T15:59:30.218Z,28.40
2022-08-25T16:01:59.366Z,28.40
2022-08-25T16:04:29.544Z,28.30
2022-08-25T16:06:58.805Z,28.30
2022-08-25T16:09:28.111Z,28.30
2022-08-25T16:12:05.432Z,28.30
2022-08-25T16:14:37.927Z,28.30
2022-08-25T16:17:07.309Z,28.20
2022-08-25T16:19:38.229Z,28.20
2022-08-25T16:22:08.827Z,28.10
2022-08-25T16:24:41.074Z,28.10
2022-08-25T16:27:12.999Z,28.00
2022-08-25T16:29:42.788Z,28.00
2022-08-25T16:32:13.442Z,27.90
2022-08-25T16:34:43.131Z,27.90
2022-08-25T16:37:13.631Z,27.80
2022-08-25T16:39:45.520Z,27.80
2022-08-25T16:42:16.188Z,27.80
2022-08-25T16:44:45.090Z,27.70
2022-08-25T16:47:14.491Z,27.70
2022-08-25T16:49:47.155Z,27.60
2022-08-25T16:52:33.273Z,27.60
2022-08-25T16:55:16.390Z,27.60
2022-08-25T16:57:49.536Z,27.50
2022-08-25T17:00:23.404Z,27.40
2022-08-25T17:02:55.635Z,27.40
2022-08-25T17:05:24.201Z,27.40
2022-08-25T17:08:13.769Z,27.30
2022-08-25T17:10:43.909Z,27.30
2022-08-25T17:13:14.326Z,27.20
2022-08-25T17:15:44.971Z,27.20
2022-08-25T17:18:14.084Z,27.10
2022-08-25T17:20:45.304Z,27.00
2022-08-25T17:23:14.763Z,27.00
2022-08-25T17:25:43.846Z,27.00
2022-08-25T17:28:13.708Z,26.90
2022-08-25T17:30:43.297Z,26.80
2022-08-25T17:33:11.963Z,26.80
2022-08-25T17:35:41.364Z,26.70
2022-08-25T17:38:10.099Z,26.70
2022-08-25T17:40:38.731Z,26.60
2022-08-25T17:43:08.866Z,26.60
2022-08-25T17:45:39.358Z,26.50
2022-08-25T17:48:09.052Z,26.40
2022-08-25T17:50:39.172Z,26.40
2022-08-25T17:53:09.353Z,26.30
2022-08-25T17:55:38.706Z,26.20
2022-08-25T17:58:13.148Z,26.20
2022-08-25T18:00:45.625Z,26.10
2022-08-25T18:03:14.473Z,26.00
2022-08-25T18:05:45.108Z,25.90
2022-08-25T18:08:14.642Z,25.90
2022-08-25T18:10:43.806Z,25.90
2022-08-25T18:13:12.438Z,25.80
2022-08-25T18:15:43.688Z,25.70
2022-08-25T18:18:12.999Z,25.70
2022-08-25T18:20:46.754Z,25.60
2022-08-25T18:23:15.947Z,25.60
2022-08-25T18:25:44.996Z,25.50
2022-08-25T18:28:13.713Z,25.50
2022-08-25T18:30:44.471Z,25.40
2022-08-25T18:33:15.553Z,25.40
2022-08-25T18:35:44.336Z,25.40
2022-08-25T18:38:30.824Z,25.30
2022-08-25T18:41:00.720Z,25.20
2022-08-25T18:43:31.294Z,25.20
2022-08-25T18:46:06.040Z,25.20
2022-08-25T18:48:36.554Z,25.10
2022-08-25T18:51:06.347Z,25.10
2022-08-25T18:53:37.439Z,25.00
2022-08-25T18:56:19.593Z,25.00
2022-08-25T18:58:48.514Z,25.00
2022-08-25T19:01:19.808Z,24.90
2022-08-25T19:03:48.501Z,24.90
2022-08-25T19:06:17.143Z,24.80
2022-08-25T19:08:47.962Z,24.80
2022-08-25T19:11:17.628Z,24.80
2022-08-25T19:13:51.678Z,24.70
2022-08-25T19:16:34.285Z,24.70
2022-08-25T19:19:03.748Z,24.60
2022-08-25T19:21:32.435Z,24.60
2022-08-25T19:24:01.266Z,24.60
2022-08-25T19:26:34.442Z,24.50
2022-08-25T19:29:04.567Z,24.50
2022-08-25T19:31:34.559Z,24.40
2022-08-25T19:34:03.985Z,24.40
2022-08-25T19:36:32.812Z,24.30
2022-08-25T19:39:02.390Z,24.30
2022-08-25T19:41:33.045Z,24.30
2022-08-25T19:44:02.932Z,24.20
2022-08-25T19:46:37.362Z,24.20
2022-08-25T19:49:08.838Z,24.10
2022-08-25T19:51:39.774Z,24.10
2022-08-25T19:54:10.272Z,24.00
2022-08-25T19:56:43.710Z,24.00
2022-08-25T19:59:26.743Z,23.90
2022-08-25T20:02:05.977Z,23.90
2022-08-25T20:04:35.404Z,23.90
2022-08-25T20:07:03.831Z,23.90
2022-08-25T20:09:39.345Z,23.80
2022-08-25T20:12:11.867Z,23.80
2022-08-25T20:14:40.430Z,23.70
2022-08-25T20:17:24.011Z,23.70
2022-08-25T20:19:56.071Z,23.70
2022-08-25T20:22:26.940Z,23.60
2022-08-25T20:24:57.816Z,23.60
2022-08-25T20:27:31.697Z,23.60
2022-08-25T20:30:02.803Z,23.50
2022-08-25T20:32:34.032Z,23.50
2022-08-25T20:35:03.285Z,23.50
2022-08-25T20:37:33.889Z,23.40
2022-08-25T20:40:02.916Z,23.40
2022-08-25T20:42:31.732Z,23.40
2022-08-25T20:45:00.406Z,23.30
2022-08-25T20:47:29.941Z,23.30
2022-08-25T20:50:05.927Z,23.30
2022-08-25T20:52:36.404Z,23.20
2022-08-25T20:55:09.463Z,23.10
2022-08-25T20:57:38.776Z,23.10
2022-08-25T21:00:08.701Z,23.10
2022-08-25T21:02:38.182Z,23.00
2022-08-25T21:05:09.331Z,23.00
2022-08-25T21:07:37.714Z,23.00
2022-08-25T21:10:10.355Z,23.00
2022-08-25T21:12:39.410Z,22.90
2022-08-25T21:15:10.031Z,22.90
2022-08-25T21:17:38.947Z,22.80
2022-08-25T21:20:10.705Z,22.80
2022-08-25T21:22:39.924Z,22.80
2022-08-25T21:25:10.008Z,22.80
2022-08-25T21:27:38.602Z,22.80
2022-08-25T21:30:08.511Z,22.80
2022-08-25T21:32:37.833Z,22.70
2022-08-25T21:35:08.356Z,22.70
2022-08-25T21:37:37.229Z,22.70
2022-08-25T21:40:08.747Z,22.70
2022-08-25T21:42:37.325Z,22.70
2022-08-25T21:45:11.374Z,22.70
2022-08-25T21:47:42.580Z,22.70
2022-08-25T21:50:14.058Z,22.60
2022-08-25T21:52:42.862Z,22.70
2022-08-25T21:55:16.203Z,22.70
2022-08-25T21:57:45.023Z,22.70
2022-08-25T22:00:14.867Z,22.70
2022-08-25T22:02:45.931Z,22.70
2022-08-25T22:05:16.115Z,22.70
2022-08-25T22:07:45.105Z,22.70
2022-08-25T22:10:17.683Z,22.70
2022-08-25T22:12:47.098Z,22.70
2022-08-25T22:15:17.880Z,22.70
2022-08-25T22:17:48.098Z,22.70
2022-08-25T22:20:19.794Z,22.70
2022-08-25T22:22:48.784Z,22.70
2022-08-25T22:25:18.483Z,22.70
2022-08-25T22:27:48.753Z,22.70
2022-08-25T22:30:26.908Z,22.60
2022-08-25T22:32:59.625Z,22.60
2022-08-25T22:35:32.002Z,22.60
2022-08-25T22:38:01.896Z,22.60
2022-08-25T22:40:33.804Z,22.60
2022-08-25T22:43:02.186Z,22.60
2022-08-25T22:45:31.178Z,22.60
2022-08-25T22:48:00.264Z,22.60
2022-08-25T22:50:31.388Z,22.50
2022-08-25T22:53:00.607Z,22.50
2022-08-25T22:55:29.095Z,22.50
2022-08-25T22:57:57.629Z,22.50
2022-08-25T23:00:26.403Z,22.50
2022-08-25T23:02:55.185Z,22.50
2022-08-25T23:05:24.603Z,22.40
2022-08-25T23:07:55.121Z,22.40
2022-08-25T23:10:25.658Z,22.40
2022-08-25T23:12:54.550Z,22.40
2022-08-25T23:15:23.286Z,22.40
2022-08-25T23:17:52.074Z,22.30
2022-08-25T23:20:45.014Z,22.30
2022-08-25T23:23:15.203Z,22.30
2022-08-25T23:25:43.957Z,22.30
2022-08-25T23:28:12.412Z,22.30
2022-08-25T23:30:42.775Z,22.30
2022-08-25T23:33:15.581Z,22.30
2022-08-25T23:35:47.461Z,22.30
2022-08-25T23:38:17.475Z,22.30
2022-08-25T23:40:46.699Z,22.30
2022-08-25T23:43:15.206Z,22.30
2022-08-25T23:45:44.248Z,22.30
2022-08-25T23:48:13.132Z,22.20
2022-08-25T23:50:54.007Z,22.20
2022-08-25T23:53:24.900Z,22.20
2022-08-25T23:55:54.711Z,22.20
2022-08-25T23:58:24.353Z,22.20
